Time;durP1;ratioP1;P1;durP2;ratioP2;P2;SDS_P1;SDS_P2;PMS_P1;PMS_P2;Temp;Humidity;BMP_temperature;BMP_pressure;BME280_temperature;BME280_humidity;BME280_pressure;Samples;Min_cycle;Max_cycle;Signal;HPM_P1;HPM_P2
2022/03/22 00:00:55;;;;;;;16.77;15.07;;;9.00;99.90;;;;;;4902596;29;20436;-93
2022/03/22 00:03:24;;;;;;;20.60;15.60;;;9.10;99.90;;;;;;4919501;29;20519;-94
2022/03/22 00:05:50;;;;;;;18.30;15.97;;;8.50;99.90;;;;;;4903653;29;20772;-92
2022/03/22 00:08:15;;;;;;;14.77;13.30;;;9.60;99.90;;;;;;4904088;29;20420;-92
2022/03/22 00:10:41;;;;;;;16.50;14.43;;;9.40;99.90;;;;;;4902368;29;20451;-92
2022/03/22 00:13:07;;;;;;;19.33;14.93;;;10.90;99.90;;;;;;4929440;29;20219;-92
2022/03/22 00:15:33;;;;;;;19.30;15.13;;;9.50;99.90;;;;;;4907724;29;20188;-93
2022/03/22 00:17:59;;;;;;;15.90;14.30;;;9.50;99.90;;;;;;4902474;29;20430;-93
2022/03/22 00:20:25;;;;;;;22.10;15.10;;;9.20;99.90;;;;;;4902156;29;21359;-93
2022/03/22 00:22:51;;;;;;;21.23;15.50;;;10.80;99.90;;;;;;4919146;29;20257;-93
2022/03/22 00:25:17;;;;;;;15.50;14.10;;;9.10;99.90;;;;;;4896273;29;20451;-94
2022/03/22 00:27:57;;;;;;;17.03;15.30;;;11.50;99.90;;;;;;4919365;29;20585;-93
2022/03/22 00:30:31;;;;;;;20.07;16.97;;;9.10;99.90;;;;;;4920029;29;20982;-93
2022/03/22 00:32:59;;;;;;;16.17;14.60;;;9.20;99.90;;;;;;4916061;29;20476;-93
2022/03/22 00:35:27;;;;;;;19.07;14.63;;;9.20;99.90;;;;;;4902255;29;20447;-92
2022/03/22 00:37:56;;;;;;;17.13;15.17;;;9.00;99.90;;;;;;4915748;29;20499;-92
2022/03/22 00:40:24;;;;;;;19.67;15.97;;;9.20;99.90;;;;;;4916770;29;20433;-92
2022/03/22 00:42:53;;;;;;;18.80;15.80;;;9.10;99.90;;;;;;4919866;29;20514;-92
2022/03/22 00:45:22;;;;;;;17.83;16.07;;;9.20;99.90;;;;;;4934248;29;20877;-93
2022/03/22 00:47:50;;;;;;;18.27;16.00;;;9.10;99.90;;;;;;4936483;29;20979;-92
2022/03/22 00:50:19;;;;;;;16.23;14.23;;;9.10;99.90;;;;;;4917268;29;21082;-92
2022/03/22 00:52:44;;;;;;;18.00;15.10;;;9.10;99.90;;;;;;4918640;29;20510;-92
2022/03/22 00:55:12;;;;;;;17.07;15.27;;;9.10;99.90;;;;;;4932800;29;20960;-93
2022/03/22 00:57:39;;;;;;;16.33;14.77;;;9.00;99.90;;;;;;4918626;29;20168;-93
2022/03/22 01:00:08;;;;;;;18.00;16.10;;;9.00;99.90;;;;;;4915555;29;20427;-93
2022/03/22 01:02:35;;;;;;;17.37;15.50;;;9.00;99.90;;;;;;4928122;29;20419;-92
2022/03/22 01:05:03;;;;;;;18.73;15.90;;;9.00;99.90;;;;;;4916797;29;20446;-92
2022/03/22 01:07:29;;;;;;;18.37;15.90;;;8.90;99.90;;;;;;4918576;29;20508;-93
2022/03/22 01:09:55;;;;;;;19.33;15.97;;;8.80;99.90;;;;;;4931340;29;20467;-93
2022/03/22 01:12:21;;;;;;;20.13;16.23;;;8.80;99.90;;;;;;4919209;29;20175;-93
2022/03/22 01:14:46;;;;;;;17.43;15.70;;;8.00;99.90;;;;;;4918387;29;20963;-91
2022/03/22 01:17:12;;;;;;;21.03;17.47;;;10.30;99.90;;;;;;4921550;29;20191;-93
2022/03/22 01:19:39;;;;;;;21.97;16.97;;;9.10;99.90;;;;;;4923961;29;20188;-93
2022/03/22 01:22:05;;;;;;;19.17;15.93;;;7.70;99.90;;;;;;4940005;29;20219;-93
2022/03/22 01:24:31;;;;;;;24.00;17.10;;;9.10;99.90;;;;;;4927026;29;20530;-93
2022/03/22 01:26:57;;;;;;;17.57;15.10;;;8.80;99.90;;;;;;4918415;29;20502;-94
2022/03/22 01:29:23;;;;;;;16.80;15.10;;;8.70;99.90;;;;;;4919642;29;20439;-95
2022/03/22 01:31:49;;;;;;;19.90;16.30;;;8.90;99.90;;;;;;4922724;29;20243;-92
2022/03/22 01:34:15;;;;;;;16.73;15.03;;;11.00;99.90;;;;;;4920718;29;20218;-92
2022/03/22 01:36:41;;;;;;;17.27;15.47;;;10.50;99.90;;;;;;4922084;29;20442;-93
2022/03/22 01:39:07;;;;;;;18.40;15.43;;;8.30;99.90;;;;;;4922025;29;20804;-93
2022/03/22 01:41:33;;;;;;;21.73;16.00;;;8.80;99.90;;;;;;4926625;29;20447;-92
2022/03/22 01:43:59;;;;;;;19.70;15.50;;;10.30;99.90;;;;;;4917947;29;20198;-93
2022/03/22 01:46:25;;;;;;;18.57;15.23;;;9.10;99.90;;;;;;4900233;29;20532;-95
2022/03/22 01:48:52;;;;;;;18.57;14.80;;;9.90;99.90;;;;;;4920010;29;20904;-93
2022/03/22 01:51:20;;;;;;;20.70;15.67;;;8.70;99.90;;;;;;4919545;29;20652;-93
2022/03/22 01:53:47;;;;;;;19.57;16.30;;;10.30;99.90;;;;;;4902137;29;20546;-93
2022/03/22 01:56:13;;;;;;;17.47;15.23;;;8.80;99.90;;;;;;4925355;29;20447;-93
2022/03/22 01:58:39;;;;;;;20.03;16.27;;;8.90;99.90;;;;;;4916836;29;20436;-92
2022/03/22 02:06:35;;;;;;;16.77;14.93;;;8.00;99.90;;;;;;4928299;29;20463;-93
2022/03/22 02:09:01;;;;;;;21.40;14.87;;;7.70;99.90;;;;;;4919263;29;20199;-93
2022/03/22 02:11:27;;;;;;;19.13;15.30;;;10.40;99.90;;;;;;4938524;29;20427;-93
2022/03/22 02:13:52;;;;;;;18.93;16.23;;;8.70;99.90;;;;;;4929740;29;20510;-93
2022/03/22 02:16:18;;;;;;;16.37;14.67;;;;;;;;;;4935665;29;20195;-92
2022/03/22 02:18:45;;;;;;;17.87;16.00;;;8.60;99.90;;;;;;4927690;29;20211;-94
2022/03/22 02:21:14;;;;;;;17.53;15.73;;;9.70;99.90;;;;;;4917916;29;20447;-93
2022/03/22 02:23:55;;;;;;;18.37;16.53;;;10.70;99.90;;;;;;4919911;29;21043;-93
2022/03/22 02:26:22;;;;;;;20.60;15.63;;;8.40;99.90;;;;;;4902969;29;20483;-93
2022/03/22 02:28:53;;;;;;;19.27;16.60;;;9.40;99.90;;;;;;4913778;29;20463;-94
2022/03/22 02:31:20;;;;;;;17.40;15.70;;;10.00;99.90;;;;;;4924389;29;20430;-92
2022/03/22 02:33:46;;;;;;;17.43;14.50;;;8.40;99.90;;;;;;4943097;29;20497;-93
2022/03/22 02:36:12;;;;;;;21.23;15.37;;;6.90;99.90;;;;;;4929615;29;20435;-93
2022/03/22 02:39:18;;;;;;;17.90;14.03;;;9.80;99.90;;;;;;4929670;29;20626;-90
2022/03/22 02:41:48;;;;;;;16.00;14.50;;;9.00;99.90;;;;;;4958470;28;20461;-90
2022/03/22 02:44:14;;;;;;;17.30;15.17;;;10.50;99.90;;;;;;4943255;28;20463;-89
2022/03/22 02:46:40;;;;;;;18.37;14.47;;;;;;;;;;4939339;29;20444;-92
2022/03/22 02:49:08;;;;;;;17.20;14.70;;;8.10;99.90;;;;;;4920793;29;20188;-89
2022/03/22 02:51:34;;;;;;;17.53;15.80;;;9.80;99.90;;;;;;4945605;23;20529;-79
2022/03/22 02:53:59;;;;;;;16.50;14.37;;;8.10;99.90;;;;;;4921761;29;20514;-78
2022/03/22 02:56:25;;;;;;;18.97;16.03;;;8.00;99.90;;;;;;4937948;28;20258;-78
2022/03/22 02:58:50;;;;;;;22.30;15.33;;;8.00;99.90;;;;;;4943294;28;20202;-77
2022/03/22 03:01:16;;;;;;;16.17;14.50;;;8.00;99.90;;;;;;4935204;28;20270;-78
2022/03/22 03:03:42;;;;;;;18.23;14.97;;;8.00;99.90;;;;;;4931975;28;20203;-77
2022/03/22 03:06:08;;;;;;;18.17;15.97;;;8.00;99.90;;;;;;4943870;28;20273;-78
2022/03/22 03:08:33;;;;;;;18.47;15.23;;;8.10;99.90;;;;;;4933273;29;20469;-79
2022/03/22 03:10:59;;;;;;;18.73;14.77;;;8.10;99.90;;;;;;4920156;29;20191;-78
2022/03/22 03:13:25;;;;;;;20.00;15.27;;;8.10;99.90;;;;;;4932895;29;20214;-78
2022/03/22 03:15:50;;;;;;;16.97;15.27;;;8.20;99.90;;;;;;4921129;29;20194;-78
2022/03/22 03:18:18;;;;;;;17.80;14.33;;;8.10;99.90;;;;;;4915783;29;20179;-78
2022/03/22 03:20:44;;;;;;;18.60;14.87;;;8.10;99.90;;;;;;4934251;29;20585;-78
2022/03/22 03:23:09;;;;;;;17.63;14.70;;;8.10;99.90;;;;;;4934087;29;20432;-78
2022/03/22 03:25:35;;;;;;;16.03;14.30;;;8.20;99.90;;;;;;4930084;29;20194;-78
2022/03/22 03:28:02;;;;;;;22.50;15.47;;;8.20;99.90;;;;;;4931752;29;20262;-78
2022/03/22 03:30:27;;;;;;;18.17;15.00;;;8.30;99.90;;;;;;4912379;29;20483;-78
2022/03/22 03:32:53;;;;;;;18.43;14.50;;;8.20;99.90;;;;;;4916722;29;20745;-78
2022/03/22 03:35:21;;;;;;;20.70;14.30;;;8.10;99.90;;;;;;4918725;29;20758;-78
2022/03/22 03:37:47;;;;;;;16.87;15.17;;;8.10;99.90;;;;;;4921767;29;20271;-78
2022/03/22 03:40:13;;;;;;;17.50;14.40;;;8.00;99.90;;;;;;4923281;29;21015;-78
2022/03/22 03:42:42;;;;;;;18.53;14.73;;;8.10;99.90;;;;;;4913835;29;20196;-78
2022/03/22 03:48:17;;;;;;;15.00;13.33;;;8.20;99.90;;;;;;4873469;29;20426;-78
2022/03/22 03:50:43;;;;;;;16.57;14.60;;;8.20;99.90;;;;;;4883620;29;20515;-78
2022/03/22 03:53:08;;;;;;;14.63;13.27;;;8.20;99.90;;;;;;4893836;29;20547;-78
2022/03/22 03:55:34;;;;;;;18.80;14.60;;;8.30;99.90;;;;;;4916942;29;20251;-78
2022/03/22 03:58:00;;;;;;;16.50;14.80;;;8.20;99.90;;;;;;4906293;29;20195;-78
2022/03/22 04:00:26;;;;;;;17.63;15.43;;;8.20;99.90;;;;;;4912601;29;20543;-78
2022/03/22 04:02:53;;;;;;;16.77;15.17;;;8.10;99.90;;;;;;4908867;29;20282;-79
2022/03/22 04:05:19;;;;;;;17.60;15.03;;;8.10;99.90;;;;;;4920266;29;20200;-78
2022/03/22 04:07:45;;;;;;;15.90;14.20;;;8.20;99.90;;;;;;4915367;29;20511;-79
2022/03/22 04:10:10;;;;;;;15.43;13.80;;;8.00;99.90;;;;;;4931303;29;20190;-78
2022/03/22 04:12:41;;;;;;;18.83;15.20;;;8.00;99.90;;;;;;4911556;29;20283;-78
2022/03/22 04:15:07;;;;;;;15.60;13.93;;;7.90;99.90;;;;;;4914275;29;20848;-79
2022/03/22 04:17:34;;;;;;;16.30;14.03;;;7.90;99.90;;;;;;4911487;29;20436;-78
2022/03/22 04:20:00;;;;;;;17.83;15.90;;;7.90;99.90;;;;;;4931604;29;21009;-78
2022/03/22 04:22:26;;;;;;;19.00;15.33;;;7.80;99.90;;;;;;4894222;29;20451;-78
2022/03/22 04:24:51;;;;;;;17.90;14.27;;;7.80;99.90;;;;;;4930995;29;20215;-78
2022/03/22 04:32:45;;;;;;;21.47;14.13;;;7.80;99.90;;;;;;4229865;29;10000829;-78
2022/03/22 04:35:20;;;;;;;17.27;14.60;;;7.80;99.90;;;;;;4911679;29;20522;-79
2022/03/22 04:37:50;;;;;;;16.17;14.13;;;7.80;99.90;;;;;;4902160;29;20199;-78
2022/03/22 04:40:17;;;;;;;15.20;13.70;;;7.70;99.90;;;;;;4914836;29;20585;-78
2022/03/22 04:42:43;;;;;;;17.00;13.80;;;7.60;99.90;;;;;;4890954;29;20463;-78
2022/03/22 04:45:09;;;;;;;16.48;14.30;;;7.70;99.90;;;;;;4922761;29;20459;-78
2022/03/22 04:47:35;;;;;;;17.40;13.43;;;7.60;99.90;;;;;;4907685;29;20777;-79
2022/03/22 04:50:05;;;;;;;17.33;14.00;;;7.50;99.90;;;;;;4918770;29;20507;-78
2022/03/22 04:58:00;;;;;;;15.00;13.43;;;7.60;99.90;;;;;;4905057;29;21003;-78
2022/03/22 05:00:25;;;;;;;18.00;14.67;;;7.50;99.90;;;;;;4894010;29;20207;-78
2022/03/22 05:02:52;;;;;;;27.67;15.27;;;7.50;99.90;;;;;;4914014;29;20551;-78
2022/03/22 05:06:25;;;;;;;15.53;13.93;;;7.50;99.90;;;;;;4922904;29;20198;-77
2022/03/22 05:08:04;;;;;;;24.35;12.15;;;7.40;99.90;;;;;;4912734;29;20519;-77
2022/03/22 05:10:32;;;;;;;15.30;13.70;;;7.30;99.90;;;;;;4896674;29;20223;-79
2022/03/22 05:12:58;;;;;;;17.50;13.43;;;7.30;99.90;;;;;;4895193;29;20488;-77
2022/03/22 05:15:24;;;;;;;16.60;12.07;;;7.20;99.90;;;;;;4903100;29;21024;-78
2022/03/22 05:17:49;;;;;;;21.23;13.10;;;7.30;99.90;;;;;;4911034;29;20548;-78
2022/03/22 05:20:15;;;;;;;15.43;13.30;;;7.30;99.90;;;;;;4928347;29;20179;-78
2022/03/22 05:22:42;;;;;;;14.70;13.10;;;7.30;99.90;;;;;;4884662;29;20206;-77
2022/03/22 05:25:09;;;;;;;14.07;12.53;;;7.30;99.90;;;;;;4902328;29;20448;-77
2022/03/22 05:27:37;;;;;;;16.13;12.37;;;7.20;99.90;;;;;;4905832;29;20495;-77
2022/03/22 05:30:03;;;;;;;14.50;12.37;;;7.20;99.90;;;;;;4891549;29;20444;-79
2022/03/22 05:32:29;;;;;;;21.73;14.35;;;7.30;99.90;;;;;;4902511;29;20979;-79
2022/03/22 05:34:54;;;;;;;14.10;12.70;;;8.50;99.90;;;;;;4891215;29;20199;-78
2022/03/22 05:37:21;;;;;;;15.47;13.87;;;7.30;99.90;;;;;;4907884;29;20205;-79
2022/03/22 05:39:47;;;;;;;13.93;12.50;;;7.30;99.90;;;;;;4906387;29;20371;-78
2022/03/22 05:42:13;;;;;;;14.63;12.97;;;7.40;99.90;;;;;;4908129;29;20436;-78
2022/03/22 05:44:40;;;;;;;14.00;12.70;;;7.40;99.90;;;;;;4895556;29;20195;-78
2022/03/22 05:47:06;;;;;;;13.80;12.50;;;7.50;99.90;;;;;;4889941;29;20994;-78
2022/03/22 05:49:33;;;;;;;15.93;14.40;;;7.50;99.90;;;;;;4907101;29;20448;-78
2022/03/22 05:51:59;;;;;;;15.50;13.38;;;7.50;99.90;;;;;;4906332;29;20460;-78
2022/03/22 05:54:25;;;;;;;15.13;13.07;;;7.50;99.90;;;;;;4885024;29;20242;-78
2022/03/22 05:56:50;;;;;;;15.90;12.63;;;7.50;99.90;;;;;;4905548;29;20433;-77
2022/03/22 05:59:16;;;;;;;13.80;12.50;;;7.50;99.90;;;;;;4910233;29;20476;-76
2022/03/22 06:01:44;;;;;;;21.20;11.60;;;7.60;99.90;;;;;;4893275;29;20223;-78
2022/03/22 06:04:12;;;;;;;14.20;12.70;;;7.60;99.90;;;;;;4901589;29;20229;-77
2022/03/22 06:06:39;;;;;;;13.90;12.47;;;7.70;99.90;;;;;;4889581;29;20443;-78
2022/03/22 06:09:05;;;;;;;13.60;12.18;;;7.90;99.90;;;;;;4887533;29;20421;-77
2022/03/22 06:11:35;;;;;;;14.10;12.70;;;7.90;99.90;;;;;;4903704;29;20198;-77
2022/03/22 06:14:04;;;;;;;17.80;12.37;;;8.00;99.90;;;;;;4900941;29;20548;-78
2022/03/22 06:16:30;;;;;;;12.60;11.50;;;8.10;99.90;;;;;;4904643;29;20427;-77
2022/03/22 06:18:56;;;;;;;14.30;12.90;;;8.20;99.90;;;;;;4903420;29;20999;-76
2022/03/22 06:21:22;;;;;;;13.40;12.20;;;8.30;99.90;;;;;;4895499;29;20601;-78
2022/03/22 06:23:47;;;;;;;15.03;12.80;;;8.30;99.90;;;;;;4887088;29;20445;-78
2022/03/22 06:26:14;;;;;;;13.00;11.57;;;8.50;99.90;;;;;;4888156;29;20460;-79
2022/03/22 06:28:40;;;;;;;16.63;12.70;;;8.80;99.90;;;;;;4905607;29;20270;-78
2022/03/22 06:31:06;;;;;;;12.43;11.30;;;9.10;99.90;;;;;;4901585;29;20448;-77
2022/03/22 06:33:32;;;;;;;15.17;12.20;;;8.60;99.90;;;;;;4899139;29;20477;-77
2022/03/22 06:35:57;;;;;;;12.60;11.30;;;9.90;99.90;;;;;;4902350;29;20192;-79
2022/03/22 06:38:23;;;;;;;17.33;11.47;;;10.20;99.90;;;;;;4897344;29;20883;-79
2022/03/22 06:40:50;;;;;;;11.40;10.37;;;10.70;99.90;;;;;;4915228;29;20215;-78
2022/03/22 06:43:17;;;;;;;13.43;12.07;;;10.90;99.90;;;;;;4900148;29;20196;-80
2022/03/22 06:45:45;;;;;;;12.40;11.23;;;11.20;99.80;;;;;;4889591;29;20519;-77
2022/03/22 06:48:11;;;;;;;12.20;11.20;;;11.50;99.50;;;;;;4908803;29;20448;-77
2022/03/22 06:50:39;;;;;;;12.73;11.63;;;12.90;98.60;;;;;;4907984;29;20859;-79
2022/03/22 06:53:06;;;;;;;12.20;11.00;;;13.10;97.40;;;;;;4900571;29;20464;-79
2022/03/22 06:55:32;;;;;;;14.50;11.73;;;12.50;95.80;;;;;;4903038;29;20773;-78
2022/03/22 06:57:59;;;;;;;11.80;10.70;;;12.60;95.20;;;;;;4888152;29;20443;-78
2022/03/22 07:00:27;;;;;;;12.73;11.47;;;13.10;92.90;;;;;;4900135;29;20427;-79
2022/03/22 07:02:53;;;;;;;15.07;13.70;;;13.10;91.40;;;;;;4901871;29;20452;-78
2022/03/22 07:05:19;;;;;;;12.57;11.47;;;13.40;90.90;;;;;;4901230;29;20435;-77
2022/03/22 07:07:45;;;;;;;16.47;14.87;;;13.60;88.10;;;;;;4903989;29;20441;-77
2022/03/22 07:10:16;;;;;;;12.43;11.27;;;14.00;93.90;;;;;;4890124;29;20231;-76
2022/03/22 07:12:59;;;;;;;15.83;12.40;;;14.60;92.00;;;;;;4909816;29;20323;-78
2022/03/22 07:15:33;;;;;;;12.80;11.70;;;15.30;85.30;;;;;;4909944;29;20780;-78
2022/03/22 07:18:00;;;;;;;15.67;12.67;;;15.80;87.70;;;;;;4912415;29;20470;-78
2022/03/22 07:20:26;;;;;;;17.00;12.13;;;16.00;84.80;;;;;;4900732;29;20495;-78
2022/03/22 07:22:52;;;;;;;15.77;12.70;;;16.10;74.40;;;;;;4910431;29;20444;-78
2022/03/22 07:25:18;;;;;;;13.60;12.43;;;16.50;77.50;;;;;;4913403;29;20511;-78
2022/03/22 07:27:44;;;;;;;16.10;13.97;;;16.80;72.70;;;;;;4919721;29;20495;-78
2022/03/22 07:30:11;;;;;;;15.90;12.63;;;16.80;65.90;;;;;;4908694;29;20435;-79
2022/03/22 07:32:45;;;;;;;14.30;13.10;;;17.30;65.30;;;;;;4893397;29;20487;-78
2022/03/22 07:35:12;;;;;;;15.63;14.00;;;17.60;59.70;;;;;;4907042;29;20440;-79
2022/03/22 07:37:38;;;;;;;15.77;14.17;;;17.90;58.60;;;;;;4914974;29;20482;-78
2022/03/22 07:40:07;;;;;;;14.90;13.50;;;18.20;57.10;;;;;;4928376;29;20419;-79
2022/03/22 07:42:33;;;;;;;16.50;15.00;;;18.50;55.30;;;;;;4910356;29;20589;-78
2022/03/22 07:45:04;;;;;;;14.67;13.23;;;18.80;52.20;;;;;;4928666;29;20503;-78
2022/03/22 07:47:30;;;;;;;16.37;14.77;;;19.10;51.10;;;;;;4910012;29;20438;-78
2022/03/22 07:55:27;;;;;;;15.83;14.53;;;20.00;47.30;;;;;;4914941;29;20478;-78
2022/03/22 07:57:52;;;;;;;15.90;14.30;;;20.50;46.00;;;;;;4911610;29;21247;-77
2022/03/22 08:00:21;;;;;;;15.77;14.40;;;21.40;44.40;;;;;;4912428;29;20546;-78
2022/03/22 08:02:56;;;;;;;18.87;14.30;;;21.60;41.70;;;;;;4931649;29;20258;-79
2022/03/22 08:05:23;;;;;;;15.23;13.70;;;21.60;40.60;;;;;;4911658;29;20819;-79
2022/03/22 08:07:49;;;;;;;19.17;14.40;;;21.30;40.30;;;;;;4930698;29;20418;-79
2022/03/22 08:10:15;;;;;;;16.47;14.80;;;21.60;39.70;;;;;;4921703;29;20795;-79
2022/03/22 08:12:42;;;;;;;16.53;14.70;;;22.10;39.50;;;;;;4931370;29;20415;-79
2022/03/22 08:15:12;;;;;;;16.90;14.27;;;22.10;38.80;;;;;;4913079;29;20849;-80
2022/03/22 08:17:39;;;;;;;15.63;14.23;;;22.50;38.40;;;;;;4895349;29;20499;-80
2022/03/22 08:20:07;;;;;;;15.53;14.03;;;23.00;36.30;;;;;;4911490;29;20427;-79
2022/03/22 08:22:44;;;;;;;13.97;12.77;;;23.40;36.40;;;;;;4926012;29;20456;-80
2022/03/22 08:25:09;;;;;;;15.60;14.00;;;23.80;35.40;;;;;;4910955;29;20921;-80
2022/03/22 08:27:35;;;;;;;15.00;13.63;;;23.90;34.90;;;;;;4910562;29;20453;-78
2022/03/22 08:30:02;;;;;;;14.87;13.30;;;24.30;33.80;;;;;;4912372;29;20247;-80
2022/03/22 08:32:27;;;;;;;13.30;12.30;;;24.50;32.70;;;;;;4573136;29;10000609;-79
2022/03/22 08:34:55;;;;;;;15.17;14.00;;;25.00;29.70;;;;;;4916889;29;20206;-79
2022/03/22 08:37:20;;;;;;;14.23;13.10;;;25.20;31.90;;;;;;4913292;29;20204;-79
2022/03/22 08:39:46;;;;;;;13.73;12.47;;;25.70;30.80;;;;;;4907279;29;20431;-80
2022/03/22 08:42:12;;;;;;;13.97;12.67;;;26.20;29.40;;;;;;4900820;29;20187;-80
2022/03/22 08:44:40;;;;;;;13.53;12.63;;;26.40;28.90;;;;;;4910599;29;21069;-79
2022/03/22 08:47:06;;;;;;;13.53;12.20;;;26.60;28.50;;;;;;4897780;29;20210;-79
2022/03/22 08:49:32;;;;;;;13.00;12.03;;;26.50;27.90;;;;;;4918998;29;20519;-79
2022/03/22 08:51:57;;;;;;;14.03;12.93;;;27.10;28.60;;;;;;4903236;29;20447;-79
2022/03/22 08:54:23;;;;;;;14.23;12.90;;;27.60;27.90;;;;;;4901874;29;20695;-79
2022/03/22 08:56:49;;;;;;;12.00;11.10;;;27.70;28.20;;;;;;4887065;29;20505;-79
2022/03/22 08:59:14;;;;;;;13.03;12.13;;;28.00;26.80;;;;;;4888815;29;20271;-80
2022/03/22 09:01:40;;;;;;;12.40;11.50;;;28.60;27.20;;;;;;4881003;29;20203;-80
2022/03/22 09:06:50;;;;;;;11.80;10.90;;;28.90;27.50;;;;;;4899181;29;20215;-79
2022/03/22 09:09:16;;;;;;;11.77;10.70;;;28.70;26.70;;;;;;4884434;29;20523;-80
2022/03/22 09:11:42;;;;;;;12.40;11.60;;;28.90;25.80;;;;;;4903285;29;20514;-80
2022/03/22 09:14:07;;;;;;;13.50;12.10;;;28.50;26.00;;;;;;4901604;29;20212;-79
2022/03/22 09:16:34;;;;;;;12.37;11.47;;;28.50;27.50;;;;;;4887902;29;20192;-78
2022/03/22 09:18:59;;;;;;;11.43;10.63;;;28.20;26.90;;;;;;4901213;29;20177;-79
2022/03/22 09:21:26;;;;;;;12.57;11.67;;;28.90;25.80;;;;;;4882935;29;20761;-78
2022/03/22 09:23:52;;;;;;;13.90;12.40;;;28.90;27.70;;;;;;4899714;29;20219;-78
2022/03/22 09:26:18;;;;;;;14.80;13.60;;;28.20;26.80;;;;;;4899569;29;20449;-79
2022/03/22 09:28:44;;;;;;;13.27;12.17;;;28.90;25.60;;;;;;4911098;29;20219;-78
2022/03/22 09:31:10;;;;;;;14.10;12.80;;;28.90;25.40;;;;;;4908296;29;20458;-78
2022/03/22 09:33:36;;;;;;;14.77;13.17;;;29.20;25.30;;;;;;4911044;29;20200;-79
2022/03/22 09:36:01;;;;;;;13.17;12.27;;;29.10;25.50;;;;;;4914005;29;20212;-78
2022/03/22 09:38:27;;;;;;;13.53;12.53;;;29.40;25.50;;;;;;4907683;29;20460;-78
2022/03/22 09:41:01;;;;;;;12.83;11.70;;;29.70;25.20;;;;;;4909468;29;20659;-79
2022/03/22 09:43:28;;;;;;;13.27;12.27;;;28.90;25.10;;;;;;4900322;29;20223;-79
2022/03/22 09:45:57;;;;;;;13.57;12.57;;;29.30;25.50;;;;;;4884361;29;20532;-82
2022/03/22 09:48:24;;;;;;;13.70;12.60;;;28.80;25.40;;;;;;4903562;29;20431;-79
2022/03/22 09:53:34;;;;;;;13.40;11.93;;;28.40;25.10;;;;;;4900333;29;20443;-80
2022/03/22 09:56:00;;;;;;;24.73;14.07;;;28.40;25.40;;;;;;4900976;29;20467;-79
2022/03/22 09:58:25;;;;;;;15.07;13.63;;;28.80;25.30;;;;;;4900736;29;20715;-78
2022/03/22 10:00:52;;;;;;;14.07;11.83;;;;;;;;;;4902673;29;20199;-78
2022/03/22 10:03:39;;;;;;;12.77;11.90;;;30.50;24.80;;;;;;4884971;29;20282;-81
2022/03/22 10:06:07;;;;;;;15.53;14.40;;;30.60;25.30;;;;;;4899688;29;20479;-81
2022/03/22 10:08:36;;;;;;;14.67;13.00;;;30.30;25.00;;;;;;4883440;29;20978;-79
2022/03/22 10:11:02;;;;;;;13.20;11.93;;;30.50;24.90;;;;;;4902922;29;20440;-80
2022/03/22 10:13:29;;;;;;;14.90;13.27;;;30.60;24.80;;;;;;4901721;29;20815;-80
2022/03/22 10:16:05;;;;;;;13.37;12.47;;;29.70;25.10;;;;;;4884808;29;21009;-79
2022/03/22 10:18:36;;;;;;;13.47;12.60;;;29.40;25.40;;;;;;4901281;29;20804;-80
2022/03/22 10:21:04;;;;;;;13.70;12.60;;;29.40;25.60;;;;;;4903436;29;20451;-80
2022/03/22 10:23:34;;;;;;;12.93;11.90;;;29.20;25.70;;;;;;4889997;29;21131;-80
2022/03/22 10:26:07;;;;;;;12.80;11.93;;;29.00;25.70;;;;;;4901916;29;20807;-80
2022/03/22 10:28:34;;;;;;;10.77;9.77;;;29.70;25.50;;;;;;4901797;29;21031;-79
2022/03/22 10:31:00;;;;;;;13.40;11.97;;;29.80;25.10;;;;;;4917732;29;20428;-79
2022/03/22 10:33:26;;;;;;;12.70;11.80;;;30.10;25.10;;;;;;4908412;29;20440;-80
2022/03/22 10:35:52;;;;;;;12.30;11.40;;;30.40;25.20;;;;;;4886110;29;20179;-80
2022/03/22 10:38:19;;;;;;;13.10;12.03;;;31.20;25.20;;;;;;4893001;29;20792;-80
2022/03/22 10:40:46;;;;;;;13.33;12.00;;;30.90;24.60;;;;;;4887134;29;20958;-79
2022/03/22 10:43:30;;;;;;;14.33;12.50;;;30.60;24.80;;;;;;4904403;29;20824;-81
2022/03/22 10:46:00;;;;;;;14.43;11.50;;;30.90;25.10;;;;;;4886653;29;20435;-79
2022/03/22 10:48:33;;;;;;;15.33;12.40;;;31.00;24.90;;;;;;4907510;29;20559;-79
2022/03/22 10:51:00;;;;;;;14.53;13.17;;;31.30;24.80;;;;;;4905058;29;20558;-80
2022/03/22 10:53:27;;;;;;;13.07;11.97;;;31.30;24.40;;;;;;4899552;29;20542;-80
2022/03/22 10:55:54;;;;;;;15.50;12.57;;;31.00;24.70;;;;;;4900537;29;20515;-80
2022/03/22 10:58:24;;;;;;;13.30;11.90;;;30.90;25.10;;;;;;4901721;29;20449;-79
2022/03/22 11:00:50;;;;;;;13.83;12.70;;;30.90;24.80;;;;;;4885282;29;20412;-80
2022/03/22 11:03:17;;;;;;;14.30;13.20;;;30.30;25.10;;;;;;4886335;29;21026;-80
2022/03/22 11:06:04;;;;;;;12.77;11.63;;;29.90;25.20;;;;;;4888492;29;20452;-80
2022/03/22 11:08:30;;;;;;;11.97;10.83;;;30.20;25.20;;;;;;4883540;29;20437;-77
2022/03/22 11:10:56;;;;;;;13.27;11.87;;;30.30;25.20;;;;;;4903539;29;20447;-79
2022/03/22 11:13:23;;;;;;;11.20;10.20;;;30.20;25.10;;;;;;4907885;29;20477;-81
2022/03/22 11:15:51;;;;;;;10.90;10.07;;;30.40;24.80;;;;;;4885790;29;20463;-80
2022/03/22 11:18:19;;;;;;;11.47;10.40;;;29.80;25.10;;;;;;4890344;29;20855;-80
2022/03/22 11:20:55;;;;;;;10.53;9.63;;;29.30;25.00;;;;;;4908666;29;20519;-82
2022/03/22 11:23:29;;;;;;;11.63;10.63;;;29.40;25.70;;;;;;4899564;29;20543;-80
2022/03/22 11:26:06;;;;;;;11.97;10.80;;;29.20;25.40;;;;;;4886688;29;20486;-81
2022/03/22 11:28:32;;;;;;;11.60;10.90;;;29.80;25.90;;;;;;4881419;29;20899;-80
2022/03/22 11:30:57;;;;;;;14.80;12.50;;;29.80;25.20;;;;;;4881729;29;20977;-81
2022/03/22 11:36:17;;;;;;;11.57;10.57;;;29.50;25.40;;;;;;4905956;29;20206;-82
2022/03/22 11:38:48;;;;;;;13.33;10.53;;;30.40;24.90;;;;;;4889225;29;20947;-80
2022/03/22 11:44:12;;;;;;;11.87;10.67;;;30.20;24.70;;;;;;4903088;29;20471;-79
2022/03/22 11:46:38;;;;;;;11.07;10.20;;;30.40;25.20;;;;;;4886307;29;20742;-79
2022/03/22 11:49:16;;;;;;;12.30;11.30;;;29.90;25.10;;;;;;4903654;29;20544;-79
2022/03/22 11:51:50;;;;;;;12.17;10.93;;;28.10;25.40;;;;;;4905589;29;20459;-78
2022/03/22 11:54:16;;;;;;;11.40;10.40;;;27.90;25.60;;;;;;4903518;29;20436;-79
2022/03/22 11:56:48;;;;;;;11.97;10.90;;;28.10;25.40;;;;;;4903327;29;20431;-77
2022/03/22 11:59:18;;;;;;;11.37;10.37;;;28.50;25.90;;;;;;4903197;29;20233;-79
2022/03/22 12:02:00;;;;;;;12.60;11.47;;;29.20;25.30;;;;;;4884744;29;20423;-80
2022/03/22 12:04:37;;;;;;;11.27;10.30;;;29.70;25.50;;;;;;4903421;29;20483;-78
2022/03/22 12:07:05;;;;;;;12.57;11.27;;;29.50;25.50;;;;;;4912637;29;20431;-79
2022/03/22 12:09:30;;;;;;;12.30;10.90;;;28.50;25.40;;;;;;4924443;29;20457;-78
2022/03/22 12:11:56;;;;;;;10.70;9.90;;;28.30;25.60;;;;;;4915228;29;20919;-79
2022/03/22 12:14:30;;;;;;;14.20;12.90;;;28.80;25.70;;;;;;4904384;29;20392;-84
2022/03/22 12:16:59;;;;;;;12.07;10.87;;;28.70;25.90;;;;;;4900600;29;20432;-82
2022/03/22 12:19:29;;;;;;;13.20;11.90;;;29.60;25.70;;;;;;4918151;29;21063;-82
2022/03/22 12:21:56;;;;;;;12.77;11.77;;;29.80;25.60;;;;;;4932020;29;20429;-84
2022/03/22 12:24:23;;;;;;;17.73;12.13;;;29.80;25.30;;;;;;4914385;29;20482;-78
2022/03/22 12:26:50;;;;;;;13.23;12.23;;;29.80;25.40;;;;;;4931481;29;20443;-80
2022/03/22 12:29:19;;;;;;;12.27;11.00;;;30.20;25.10;;;;;;4915232;29;20490;-80
2022/03/22 12:31:54;;;;;;;14.67;12.57;;;30.50;25.00;;;;;;4931137;29;20419;-80
2022/03/22 12:34:25;;;;;;;11.60;10.50;;;30.70;25.30;;;;;;4898347;29;20514;-80
2022/03/22 12:36:51;;;;;;;9.17;8.50;;;31.40;25.20;;;;;;4931954;29;20911;-80
2022/03/22 12:39:16;;;;;;;13.07;8.63;;;31.80;25.10;;;;;;4914393;29;20434;-80
2022/03/22 12:41:43;;;;;;;11.13;8.60;;;31.40;24.60;;;;;;4896306;29;20715;-79
2022/03/22 12:44:09;;;;;;;10.63;8.27;;;31.00;24.40;;;;;;4918418;29;20212;-78
2022/03/22 12:46:35;;;;;;;9.07;7.97;;;30.90;24.20;;;;;;4911475;29;20920;-79
2022/03/22 12:49:03;;;;;;;8.67;7.87;;;31.00;24.40;;;;;;4914728;29;20435;-80
2022/03/22 12:51:31;;;;;;;8.43;7.80;;;30.10;24.30;;;;;;4921684;29;20497;-81
2022/03/22 12:53:58;;;;;;;9.43;8.53;;;30.10;24.40;;;;;;4916306;29;20441;-81
2022/03/22 12:56:23;;;;;;;10.17;9.17;;;30.20;24.50;;;;;;4912443;29;20428;-81
2022/03/22 12:58:50;;;;;;;9.33;8.60;;;29.50;24.90;;;;;;4914836;29;20780;-80
2022/03/22 13:01:17;;;;;;;12.70;8.20;;;29.40;25.00;;;;;;4901279;29;20223;-81
2022/03/22 13:03:44;;;;;;;12.63;8.57;;;29.60;24.70;;;;;;4911520;29;20472;-81
2022/03/22 13:06:11;;;;;;;11.77;8.77;;;30.30;24.70;;;;;;4910537;29;20448;-81
2022/03/22 13:11:27;;;;;;;10.13;9.10;;;30.70;24.20;;;;;;4905629;29;20407;-82
2022/03/22 13:16:42;;;;;;;10.50;9.60;;;28.80;24.70;;;;;;4225024;29;10000766;-81